createdAt,value
2022-11-09T00:01:49.576Z,9.50
2022-11-09T00:04:21.330Z,9.50
2022-11-09T00:06:50.665Z,9.50
2022-11-09T00:09:20.683Z,9.50
2022-11-09T00:11:49.573Z,9.50
2022-11-09T00:14:18.624Z,9.50
2022-11-09T00:16:46.566Z,9.40
2022-11-09T00:19:16.605Z,9.40
2022-11-09T00:21:48.363Z,9.40
2022-11-09T00:24:17.974Z,9.40
2022-11-09T00:26:46.157Z,9.40
2022-11-09T00:29:18.472Z,9.40
2022-11-09T00:31:46.725Z,9.40
2022-11-09T00:34:16.968Z,9.40
2022-11-09T00:36:44.944Z,9.40
2022-11-09T00:39:13.707Z,9.40
2022-11-09T00:41:42.972Z,9.50
2022-11-09T00:44:12.492Z,9.40
2022-11-09T00:46:40.597Z,9.50
2022-11-09T00:49:09.621Z,9.50
2022-11-09T00:51:38.649Z,9.40
2022-11-09T00:54:08.144Z,9.40
2022-11-09T00:56:36.493Z,9.50
2022-11-09T00:59:06.642Z,9.50
2022-11-09T01:01:40.720Z,9.60
2022-11-09T01:04:08.933Z,9.70
2022-11-09T01:06:37.051Z,9.70
2022-11-09T01:09:11.867Z,9.80
2022-11-09T01:11:40.532Z,9.80
2022-11-09T01:14:11.641Z,9.90
2022-11-09T01:16:41.628Z,9.90
2022-11-09T01:19:10.582Z,9.90
2022-11-09T01:21:38.570Z,10.00
2022-11-09T01:24:08.165Z,10.00
2022-11-09T01:26:36.525Z,10.00
2022-11-09T01:29:04.667Z,10.00
2022-11-09T01:31:35.945Z,10.00
2022-11-09T01:34:04.666Z,10.00
2022-11-09T01:36:35.278Z,10.00
2022-11-09T01:39:03.349Z,10.00
2022-11-09T01:41:32.506Z,10.00
2022-11-09T01:44:06.830Z,10.00
2022-11-09T01:46:41.951Z,10.00
2022-11-09T01:49:16.733Z,10.00
2022-11-09T01:51:49.125Z,10.00
2022-11-09T01:54:22.658Z,10.00
2022-11-09T01:56:55.550Z,10.00
2022-11-09T01:59:30.468Z,10.00
2022-11-09T02:02:01.368Z,10.00
2022-11-09T02:04:35.627Z,9.90
2022-11-09T02:07:07.143Z,9.90
2022-11-09T02:09:42.101Z,9.90
2022-11-09T02:12:10.915Z,9.90
2022-11-09T02:14:40.664Z,9.90
2022-11-09T02:17:12.560Z,9.90
2022-11-09T02:19:40.699Z,9.80
2022-11-09T02:22:10.541Z,9.80
2022-11-09T02:24:38.630Z,9.70
2022-11-09T02:27:07.008Z,9.70
2022-11-09T02:29:41.681Z,9.70
2022-11-09T02:32:13.135Z,9.60
2022-11-09T02:34:44.620Z,9.60
2022-11-09T02:37:14.085Z,9.60
2022-11-09T02:39:42.643Z,9.50
2022-11-09T02:42:20.979Z,9.50
2022-11-09T02:44:56.397Z,9.40
2022-11-09T02:47:26.298Z,9.40
2022-11-09T02:49:58.389Z,9.40
2022-11-09T02:52:29.542Z,9.30
2022-11-09T02:54:58.740Z,9.30
2022-11-09T02:57:30.028Z,9.30
2022-11-09T02:59:59.682Z,9.30
2022-11-09T03:02:28.634Z,9.20
2022-11-09T03:04:57.668Z,9.20
2022-11-09T03:07:31.226Z,9.20
2022-11-09T03:10:01.187Z,9.10
2022-11-09T03:12:30.655Z,9.20
2022-11-09T03:15:17.893Z,9.20
2022-11-09T03:17:47.589Z,9.20
2022-11-09T03:20:18.669Z,9.20
2022-11-09T03:22:46.965Z,9.20
2022-11-09T03:25:19.404Z,9.30
2022-11-09T03:27:48.666Z,9.30
2022-11-09T03:30:19.564Z,9.30
2022-11-09T03:32:50.692Z,9.30
2022-11-09T03:35:19.701Z,9.30
2022-11-09T03:37:50.284Z,9.30
2022-11-09T03:40:20.442Z,9.30
2022-11-09T03:42:50.958Z,9.40
2022-11-09T03:45:22.672Z,9.40
2022-11-09T03:47:50.645Z,9.40
2022-11-09T03:50:19.312Z,9.40
2022-11-09T03:52:48.595Z,9.40
2022-11-09T03:55:16.612Z,9.40
2022-11-09T03:57:47.415Z,9.40
2022-11-09T04:00:20.443Z,9.40
2022-11-09T04:02:48.884Z,9.40
2022-11-09T04:05:17.661Z,9.50
2022-11-09T04:07:52.535Z,9.40
2022-11-09T04:10:21.861Z,9.40
2022-11-09T04:12:52.677Z,9.40
2022-11-09T04:15:21.526Z,9.40
2022-11-09T04:17:56.642Z,9.30
2022-11-09T04:20:26.743Z,9.30
2022-11-09T04:22:58.976Z,9.30
2022-11-09T04:25:34.280Z,9.30
2022-11-09T04:28:05.572Z,9.30
2022-11-09T04:30:36.538Z,9.20
2022-11-09T04:33:05.378Z,9.20
2022-11-09T04:35:35.695Z,9.20
2022-11-09T04:38:06.113Z,9.20
2022-11-09T04:40:35.737Z,9.20
2022-11-09T04:43:06.750Z,9.20
2022-11-09T04:45:36.671Z,9.20
2022-11-09T04:48:07.462Z,9.10
2022-11-09T04:50:38.697Z,9.10
2022-11-09T04:53:11.942Z,9.10
2022-11-09T04:55:41.384Z,9.10
2022-11-09T04:58:11.362Z,9.10
2022-11-09T05:00:42.165Z,9.00
2022-11-09T05:03:10.469Z,9.00
2022-11-09T05:05:45.447Z,9.00
2022-11-09T05:08:16.119Z,9.00
2022-11-09T05:10:44.866Z,9.00
2022-11-09T05:13:15.708Z,8.90
2022-11-09T05:15:43.797Z,8.90
2022-11-09T05:18:15.362Z,8.90
2022-11-09T05:20:43.486Z,8.80
2022-11-09T05:23:35.903Z,8.80
2022-11-09T05:26:07.392Z,8.80
2022-11-09T05:28:36.749Z,8.80
2022-11-09T05:31:04.742Z,8.80
2022-11-09T05:33:32.944Z,8.80
2022-11-09T05:36:00.898Z,8.80
2022-11-09T05:38:29.737Z,8.70
2022-11-09T05:41:00.497Z,8.70
2022-11-09T05:43:28.842Z,8.70
2022-11-09T05:46:01.344Z,8.60
2022-11-09T05:48:34.427Z,8.60
2022-11-09T05:51:03.372Z,8.60
2022-11-09T05:53:31.663Z,8.70
2022-11-09T05:56:04.643Z,8.70
2022-11-09T05:58:38.721Z,8.70
2022-11-09T06:01:10.627Z,8.70
2022-11-09T06:03:38.681Z,8.70
2022-11-09T06:06:09.253Z,8.70
2022-11-09T06:08:40.679Z,8.70
2022-11-09T06:11:11.266Z,8.70
2022-11-09T06:13:39.728Z,8.70
2022-11-09T06:16:12.715Z,8.70
2022-11-09T06:18:41.753Z,8.70
2022-11-09T06:21:11.341Z,8.70
2022-11-09T06:23:40.321Z,8.70
2022-11-09T06:26:10.215Z,8.70
2022-11-09T06:28:40.636Z,8.70
2022-11-09T06:31:12.774Z,8.70
2022-11-09T06:33:41.763Z,8.80
2022-11-09T06:36:11.666Z,8.80
2022-11-09T06:38:39.800Z,8.80
2022-11-09T06:41:11.833Z,8.80
2022-11-09T06:43:40.747Z,8.80
2022-11-09T06:46:11.891Z,8.90
2022-11-09T06:48:42.340Z,8.90
2022-11-09T06:51:12.732Z,8.90
2022-11-09T06:53:41.746Z,9.00
2022-11-09T06:56:10.657Z,9.00
2022-11-09T06:58:38.925Z,9.00
2022-11-09T07:01:16.848Z,9.10
2022-11-09T07:03:45.821Z,9.10
2022-11-09T07:06:15.041Z,9.20
2022-11-09T07:08:43.017Z,9.20
2022-11-09T07:11:16.663Z,9.30
2022-11-09T07:13:44.759Z,9.40
2022-11-09T07:16:19.823Z,9.40
2022-11-09T07:18:48.768Z,9.50
2022-11-09T07:21:17.761Z,9.50
2022-11-09T07:23:49.011Z,9.50
2022-11-09T07:26:17.781Z,9.50
2022-11-09T07:28:50.091Z,9.60
2022-11-09T07:31:19.663Z,9.60
2022-11-09T07:33:47.748Z,9.60
2022-11-09T07:36:21.215Z,9.60
2022-11-09T07:38:52.496Z,9.70
2022-11-09T07:41:20.425Z,9.70
2022-11-09T07:43:49.754Z,9.70
2022-11-09T07:46:20.670Z,9.80
2022-11-09T07:48:51.920Z,9.80
2022-11-09T07:51:20.681Z,9.80
2022-11-09T07:53:49.873Z,9.80
2022-11-09T07:56:18.063Z,9.90
2022-11-09T07:58:46.804Z,9.80
2022-11-09T08:01:15.353Z,9.80
2022-11-09T08:03:48.487Z,9.90
2022-11-09T08:06:18.597Z,9.90
2022-11-09T08:08:49.567Z,10.00
2022-11-09T08:11:21.139Z,10.00
2022-11-09T08:13:49.810Z,10.00
2022-11-09T08:16:17.780Z,10.00
2022-11-09T08:18:48.759Z,10.10
2022-11-09T08:21:17.471Z,10.10
2022-11-09T08:23:45.788Z,10.10
2022-11-09T08:26:15.708Z,10.20
2022-11-09T08:28:44.406Z,10.30
2022-11-09T08:31:12.790Z,10.30
2022-11-09T08:33:42.816Z,10.40
2022-11-09T08:36:14.691Z,10.40
2022-11-09T08:38:47.827Z,10.50
2022-11-09T08:41:16.804Z,10.50
2022-11-09T08:43:45.800Z,10.60
2022-11-09T08:46:14.406Z,10.70
2022-11-09T08:48:45.775Z,10.80
2022-11-09T08:51:15.807Z,10.80
2022-11-09T08:53:43.907Z,10.90
2022-11-09T08:56:13.026Z,10.90
2022-11-09T08:58:41.161Z,11.00
2022-11-09T09:01:15.509Z,11.10
2022-11-09T09:03:45.557Z,11.20
2022-11-09T09:06:14.993Z,11.30
2022-11-09T09:08:42.922Z,11.40
2022-11-09T09:11:11.808Z,11.40
2022-11-09T09:13:43.252Z,11.40
2022-11-09T09:16:14.831Z,11.40
2022-11-09T09:18:43.778Z,11.40
2022-11-09T09:21:13.831Z,11.40
2022-11-09T09:23:43.314Z,11.50
2022-11-09T09:26:12.447Z,11.60
2022-11-09T09:28:40.705Z,11.60
2022-11-09T09:31:12.055Z,11.70
2022-11-09T09:33:46.532Z,11.70
2022-11-09T09:36:18.863Z,11.70
2022-11-09T09:38:51.849Z,11.80
2022-11-09T09:41:25.083Z,11.80
2022-11-09T09:43:58.366Z,11.80
2022-11-09T09:46:31.721Z,11.80
2022-11-09T09:49:06.879Z,11.80
2022-11-09T09:51:40.359Z,11.80
2022-11-09T09:54:19.833Z,11.90
2022-11-09T09:56:50.213Z,12.00
2022-11-09T09:59:23.786Z,12.00
2022-11-09T10:01:52.825Z,12.00
2022-11-09T10:04:23.875Z,12.00
2022-11-09T10:07:04.745Z,12.10
2022-11-09T10:09:56.492Z,12.10
2022-11-09T10:12:34.484Z,12.10
2022-11-09T10:15:13.962Z,12.20
2022-11-09T10:17:53.902Z,12.20
2022-11-09T10:20:38.871Z,12.20
2022-11-09T10:23:42.840Z,12.20
2022-11-09T10:26:19.161Z,12.20
2022-11-09T10:29:15.106Z,12.20
2022-11-09T10:31:44.888Z,12.20
2022-11-09T10:34:19.844Z,12.30
2022-11-09T10:36:57.877Z,12.30
2022-11-09T10:39:32.180Z,12.30
2022-11-09T10:42:20.776Z,12.30
2022-11-09T10:45:16.844Z,12.40
2022-11-09T10:48:04.750Z,12.40
2022-11-09T10:50:54.011Z,12.50
2022-11-09T10:53:41.446Z,12.50
2022-11-09T10:56:32.953Z,12.50
2022-11-09T10:59:48.454Z,12.60
2022-11-09T11:02:44.580Z,12.60
2022-11-09T11:05:35.870Z,12.60
2022-11-09T11:08:29.987Z,12.70
2022-11-09T11:11:33.702Z,12.70
2022-11-09T11:14:29.879Z,12.80
2022-11-09T11:17:26.838Z,12.80
2022-11-09T11:20:28.843Z,12.90
2022-11-09T11:23:18.110Z,12.90
2022-11-09T11:26:18.774Z,12.90
2022-11-09T11:29:14.079Z,12.90
2022-11-09T11:32:03.313Z,13.00
2022-11-09T11:35:00.281Z,13.10
2022-11-09T11:38:01.878Z,13.10
2022-11-09T11:41:01.306Z,13.20
2022-11-09T11:43:55.887Z,13.20
2022-11-09T11:46:47.325Z,13.30
2022-11-09T11:49:59.918Z,13.30
2022-11-09T11:53:21.263Z,13.30
2022-11-09T11:56:23.881Z,13.30
2022-11-09T11:59:37.991Z,13.30
2022-11-09T12:02:43.044Z,13.30
2022-11-09T12:05:54.890Z,13.30
2022-11-09T12:08:59.911Z,13.40
2022-11-09T12:11:59.034Z,13.40
2022-11-09T12:14:58.488Z,13.50
2022-11-09T12:17:54.884Z,13.60
2022-11-09T12:20:50.925Z,13.60
2022-11-09T12:23:52.605Z,13.70
2022-11-09T12:27:11.017Z,13.80
2022-11-09T12:30:07.272Z,13.90
2022-11-09T12:32:57.656Z,13.90
2022-11-09T12:35:53.035Z,14.00
2022-11-09T12:38:48.536Z,14.00
2022-11-09T12:41:38.835Z,14.10
2022-11-09T12:44:30.405Z,14.10
2022-11-09T12:47:21.842Z,14.10
2022-11-09T12:50:14.542Z,14.10
2022-11-09T12:53:05.822Z,14.10
2022-11-09T12:55:57.190Z,14.00
2022-11-09T12:58:44.947Z,14.00
2022-11-09T13:01:56.240Z,14.00
2022-11-09T13:04:56.952Z,14.00
2022-11-09T13:07:51.939Z,14.00
2022-11-09T13:10:41.213Z,13.90
2022-11-09T13:13:27.953Z,13.80
2022-11-09T13:16:37.163Z,13.70
2022-11-09T13:19:54.275Z,13.70
2022-11-09T13:23:04.905Z,13.70
2022-11-09T13:25:54.037Z,13.70
2022-11-09T13:29:11.173Z,13.70
2022-11-09T13:32:25.012Z,13.60
2022-11-09T13:36:01.936Z,13.60
2022-11-09T13:39:03.999Z,13.50
2022-11-09T13:41:53.837Z,13.50
2022-11-09T13:44:42.309Z,13.40
2022-11-09T13:47:37.482Z,13.40
2022-11-09T13:50:27.296Z,13.30
2022-11-09T13:53:29.850Z,13.30
2022-11-09T13:56:27.172Z,13.30
2022-11-09T13:59:23.446Z,13.20
2022-11-09T14:02:19.986Z,13.20
2022-11-09T14:05:24.821Z,13.20
2022-11-09T14:08:21.152Z,13.20
2022-11-09T14:11:31.668Z,13.20
2022-11-09T14:14:51.477Z,13.10
2022-11-09T14:17:44.126Z,13.10
2022-11-09T14:20:45.057Z,13.10
2022-11-09T14:23:33.919Z,13.00
2022-11-09T14:26:22.685Z,13.00
2022-11-09T14:29:23.009Z,13.00
2022-11-09T14:32:30.875Z,12.90
2022-11-09T14:35:24.625Z,12.90
2022-11-09T14:38:20.668Z,12.90
2022-11-09T14:41:22.470Z,12.90
2022-11-09T14:44:17.514Z,12.80
2022-11-09T14:47:07.436Z,12.80
2022-11-09T14:49:55.999Z,12.80
2022-11-09T14:52:42.823Z,12.80
2022-11-09T14:55:31.033Z,12.80
2022-11-09T14:58:19.446Z,12.80
2022-11-09T15:01:16.567Z,12.80
2022-11-09T15:04:20.217Z,12.80
2022-11-09T15:07:18.340Z,12.80
2022-11-09T15:10:20.719Z,12.70
2022-11-09T15:13:07.631Z,12.70
2022-11-09T15:16:00.305Z,12.70
2022-11-09T15:18:47.757Z,12.70
2022-11-09T15:21:37.935Z,12.70
2022-11-09T15:24:29.021Z,12.60
2022-11-09T15:27:32.908Z,12.60
2022-11-09T15:30:34.979Z,12.60
2022-11-09T15:33:27.806Z,12.50
2022-11-09T15:36:25.357Z,12.60
2022-11-09T15:39:17.528Z,12.60
2022-11-09T15:42:07.591Z,12.50
2022-11-09T15:44:56.064Z,12.50
2022-11-09T15:47:50.009Z,12.50
2022-11-09T15:50:37.581Z,12.50
2022-11-09T15:53:25.660Z,12.50
2022-11-09T15:56:16.062Z,12.40
2022-11-09T15:59:08.258Z,12.40
2022-11-09T16:01:56.263Z,12.50
2022-11-09T16:04:43.210Z,12.40
2022-11-09T16:07:29.909Z,12.40
2022-11-09T16:10:17.848Z,12.40
2022-11-09T16:13:05.364Z,12.40
2022-11-09T16:15:53.070Z,12.40
2022-11-09T16:18:39.786Z,12.40
2022-11-09T16:21:26.600Z,12.40
2022-11-09T16:24:13.232Z,12.30
2022-11-09T16:26:59.924Z,12.40
2022-11-09T16:29:48.588Z,12.30
2022-11-09T16:32:36.469Z,12.30
2022-11-09T16:35:27.143Z,12.30
2022-11-09T16:38:14.989Z,12.30
2022-11-09T16:41:02.772Z,12.20
2022-11-09T16:43:53.799Z,12.20
2022-11-09T16:46:45.676Z,12.20
2022-11-09T16:49:34.040Z,12.10
2022-11-09T16:52:20.366Z,12.10
2022-11-09T16:55:09.451Z,12.10
2022-11-09T16:57:58.030Z,12.10
2022-11-09T17:01:09.607Z,12.10
2022-11-09T17:03:57.823Z,12.10
2022-11-09T17:06:46.382Z,12.10
2022-11-09T17:09:34.444Z,12.10
2022-11-09T17:12:21.080Z,12.10
2022-11-09T17:15:11.850Z,12.00
2022-11-09T17:17:58.257Z,12.00
2022-11-09T17:20:45.977Z,12.00
2022-11-09T17:23:37.709Z,12.00
2022-11-09T17:26:25.591Z,12.00
2022-11-09T17:29:16.789Z,11.90
2022-11-09T17:32:03.159Z,12.00
2022-11-09T17:34:49.523Z,11.90
2022-11-09T17:37:35.955Z,11.90
2022-11-09T17:40:28.477Z,11.90
2022-11-09T17:43:15.100Z,11.90
2022-11-09T17:46:08.851Z,11.90
2022-11-09T17:48:55.262Z,11.90
2022-11-09T17:51:41.431Z,11.90
2022-11-09T17:54:33.905Z,11.90
2022-11-09T17:57:24.789Z,11.90
2022-11-09T18:00:12.417Z,11.90
2022-11-09T18:03:02.981Z,11.90
2022-11-09T18:05:49.391Z,11.70
2022-11-09T18:08:36.267Z,11.90
2022-11-09T18:11:22.900Z,11.80
2022-11-09T18:14:11.142Z,11.80
2022-11-09T18:17:01.255Z,11.80
2022-11-09T18:19:47.643Z,11.80
2022-11-09T18:22:34.042Z,11.80
2022-11-09T18:25:21.265Z,11.80
2022-11-09T18:28:07.594Z,11.80
2022-11-09T18:31:04.241Z,11.80
2022-11-09T18:33:53.176Z,11.80
2022-11-09T18:36:39.941Z,11.80
2022-11-09T18:39:26.633Z,11.90
2022-11-09T18:42:13.309Z,11.80
2022-11-09T18:45:02.258Z,11.80
2022-11-09T18:47:50.987Z,11.80
2022-11-09T18:50:42.709Z,11.70
2022-11-09T18:53:30.761Z,11.70
2022-11-09T18:56:22.710Z,11.70
2022-11-09T18:59:12.467Z,11.70
2022-11-09T19:01:58.769Z,11.70
2022-11-09T19:04:49.604Z,11.70
2022-11-09T19:07:36.557Z,11.60
2022-11-09T19:10:22.952Z,11.70
2022-11-09T19:13:09.830Z,11.70
2022-11-09T19:15:58.476Z,11.70
2022-11-09T19:18:46.276Z,11.70
2022-11-09T19:21:39.098Z,11.60
2022-11-09T19:24:28.587Z,11.60
2022-11-09T19:27:15.085Z,11.70
2022-11-09T19:30:07.991Z,11.60
2022-11-09T19:32:56.087Z,11.60
2022-11-09T19:35:42.468Z,11.60
2022-11-09T19:38:33.520Z,11.60
2022-11-09T19:41:19.986Z,11.60
2022-11-09T19:44:07.262Z,11.50
2022-11-09T19:46:53.889Z,11.40
2022-11-09T19:49:40.275Z,11.40
2022-11-09T19:52:30.142Z,11.40
2022-11-09T19:55:18.031Z,11.40
2022-11-09T19:58:04.817Z,11.40
2022-11-09T20:00:51.108Z,11.40
2022-11-09T20:03:38.595Z,11.30
2022-11-09T20:06:27.492Z,11.30
2022-11-09T20:09:13.890Z,11.30
2022-11-09T20:12:19.771Z,11.30
2022-11-09T20:15:07.438Z,11.30
2022-11-09T20:17:53.920Z,11.30
2022-11-09T20:20:40.414Z,11.30
2022-11-09T20:23:27.210Z,11.30
2022-11-09T20:26:13.610Z,11.20
2022-11-09T20:29:01.408Z,11.20
2022-11-09T20:31:47.823Z,11.20
2022-11-09T20:34:35.204Z,11.20
2022-11-09T20:37:22.102Z,11.10
2022-11-09T20:40:10.125Z,11.10
2022-11-09T20:42:57.551Z,11.00
2022-11-09T20:45:45.738Z,11.00
2022-11-09T20:51:45.410Z,11.00
2022-11-09T20:54:32.145Z,10.90
2022-11-09T20:57:18.722Z,10.90
2022-11-09T21:00:06.250Z,10.80
2022-11-09T21:02:54.236Z,10.80
2022-11-09T21:05:41.129Z,10.70
2022-11-09T21:08:28.259Z,10.70
2022-11-09T21:11:14.789Z,10.70
2022-11-09T21:14:02.716Z,10.70
2022-11-09T21:16:49.199Z,10.70
2022-11-09T21:19:38.139Z,10.60
2022-11-09T21:22:44.553Z,10.60
2022-11-09T21:25:48.529Z,10.60
2022-11-09T21:28:53.197Z,10.50
2022-11-09T21:31:40.179Z,10.50
2022-11-09T21:34:27.641Z,10.50
2022-11-09T21:37:21.504Z,10.50
2022-11-09T21:40:10.710Z,10.40
2022-11-09T21:42:58.215Z,10.40
2022-11-09T21:45:50.175Z,10.40
2022-11-09T21:48:36.655Z,10.40
2022-11-09T21:51:24.157Z,10.30
2022-11-09T21:54:15.406Z,10.40
2022-11-09T21:57:01.725Z,10.30
2022-11-09T21:59:49.207Z,10.30
2022-11-09T22:02:36.469Z,10.30
2022-11-09T22:05:24.237Z,10.30
2022-11-09T22:08:10.672Z,10.30
2022-11-09T22:11:06.399Z,10.20
2022-11-09T22:14:12.112Z,10.20
2022-11-09T22:16:59.092Z,10.20
2022-11-09T22:20:04.244Z,10.20
2022-11-09T22:22:50.830Z,10.10
2022-11-09T22:25:38.224Z,10.10
2022-11-09T22:28:26.526Z,10.10
2022-11-09T22:31:13.575Z,10.10
2022-11-09T22:34:00.215Z,10.10
2022-11-09T22:36:46.733Z,10.00
2022-11-09T22:39:34.228Z,10.00
2022-11-09T22:42:21.185Z,10.00
2022-11-09T22:45:09.903Z,10.00
2022-11-09T22:47:56.574Z,10.00
2022-11-09T22:50:44.210Z,10.00
2022-11-09T22:53:31.202Z,10.00
2022-11-09T22:56:25.196Z,10.00
2022-11-09T22:59:12.222Z,9.90
2022-11-09T23:02:00.133Z,10.00
2022-11-09T23:04:47.800Z,10.00
2022-11-09T23:07:34.076Z,10.00
2022-11-09T23:10:22.222Z,10.00
2022-11-09T23:13:09.123Z,10.00
2022-11-09T23:15:58.210Z,10.00
2022-11-09T23:18:55.142Z,10.00
2022-11-09T23:21:42.207Z,10.00
2022-11-09T23:24:47.136Z,10.10
2022-11-09T23:27:34.864Z,10.10
2022-11-09T23:30:22.084Z,10.00
2022-11-09T23:33:11.605Z,10.00
2022-11-09T23:36:01.204Z,10.00
2022-11-09T23:38:47.972Z,10.00
2022-11-09T23:41:34.320Z,10.00
2022-11-09T23:44:22.258Z,10.00
2022-11-09T23:47:09.207Z,9.90
2022-11-09T23:49:57.752Z,10.00
2022-11-09T23:52:45.479Z,10.00
2022-11-09T23:55:33.319Z,9.90
2022-11-09T23:58:20.528Z,9.90
